Time;durP1;ratioP1;P1;durP2;ratioP2;P2;SDS_P1;SDS_P2;PMS_P1;PMS_P2;Temp;Humidity;BMP_temperature;BMP_pressure;BME280_temperature;BME280_humidity;BME280_pressure;Samples;Min_cycle;Max_cycle;Signal;HPM_P1;HPM_P2
2023/03/06 00:00:35;;;;;;;8.45;1.42;;;;;;;-0.30;100.00;100401.38;5030998;28;20260;-49
2023/03/06 00:03:00;;;;;;;3.78;1.13;;;;;;;-0.29;100.00;100400.47;5039304;28;20211;-48
2023/03/06 00:05:26;;;;;;;3.58;1.48;;;;;;;-0.45;100.00;100404.03;5040989;28;20183;-49
2023/03/06 00:07:52;;;;;;;4.20;1.27;;;;;;;-0.39;100.00;100389.97;5040188;28;20661;-49
2023/03/06 00:10:23;;;;;;;5.68;1.67;;;;;;;-0.51;100.00;100402.25;5042826;28;20171;-49
2023/03/06 00:12:54;;;;;;;5.25;1.52;;;;;;;-0.36;100.00;100400.50;5040067;28;20210;-49
2023/03/06 00:15:20;;;;;;;8.20;1.83;;;;;;;-0.47;100.00;100397.88;5040737;28;20187;-51
2023/03/06 00:17:46;;;;;;;3.05;1.40;;;;;;;-0.55;100.00;100389.09;5040348;28;20192;-50
2023/03/06 00:20:13;;;;;;;5.80;1.52;;;;;;;-0.43;100.00;100394.38;5033239;28;20198;-51
2023/03/06 00:22:39;;;;;;;4.88;1.42;;;;;;;-0.38;100.00;100389.09;5039461;28;20684;-49
2023/03/06 00:25:06;;;;;;;7.43;1.40;;;;;;;-0.49;100.00;100384.72;5042978;28;20243;-50
2023/03/06 00:27:32;;;;;;;5.80;1.20;;;;;;;-0.62;100.00;100386.47;5039040;28;20310;-52
2023/03/06 00:29:59;;;;;;;4.28;1.50;;;;;;;-0.47;100.00;100382.97;5037014;28;20187;-50
2023/03/06 00:32:27;;;;;;;4.32;1.50;;;;;;;-0.52;100.00;100384.72;5043481;28;20326;-49
2023/03/06 00:34:54;;;;;;;3.30;1.38;;;;;;;-0.57;100.00;100386.47;5029599;28;20195;-49
2023/03/06 00:37:21;;;;;;;4.00;1.80;;;;;;;-0.54;100.00;100383.84;5039733;28;20557;-49
2023/03/06 00:39:48;;;;;;;10.48;2.00;;;;;;;-0.71;100.00;100385.59;5021815;28;20666;-49
2023/03/06 00:42:15;;;;;;;5.38;1.50;;;;;;;-0.70;100.00;100385.59;5036968;28;20210;-50
2023/03/06 00:44:41;;;;;;;8.30;1.70;;;;;;;-0.84;100.00;100385.56;5041197;28;20194;-50
2023/03/06 00:47:07;;;;;;;11.55;1.60;;;;;;;-0.76;100.00;100388.22;5027489;28;20200;-50
2023/03/06 00:49:33;;;;;;;4.32;1.23;;;;;;;-0.82;100.00;100385.59;5037138;28;20188;-49
2023/03/06 00:51:58;;;;;;;4.15;2.17;;;;;;;-0.82;100.00;100384.72;5039110;28;20203;-50
2023/03/06 00:54:24;;;;;;;3.63;1.38;;;;;;;-0.94;100.00;100380.31;5022237;28;20235;-49
2023/03/06 00:56:49;;;;;;;3.63;1.38;;;;;;;-0.85;100.00;100380.34;5038179;28;20317;-49
2023/03/06 00:59:15;;;;;;;2.47;1.20;;;;;;;-0.96;100.00;100380.31;5039233;28;20186;-51
2023/03/06 01:01:40;;;;;;;3.47;0.95;;;;;;;-0.99;100.00;100372.41;5033765;28;20185;-50
2023/03/06 01:04:06;;;;;;;1.58;1.17;;;;;;;-1.02;100.00;100371.53;5041663;28;20714;-49
2023/03/06 01:06:31;;;;;;;4.32;1.05;;;;;;;-1.09;100.00;100368.91;5039900;28;20219;-49
2023/03/06 01:08:57;;;;;;;4.72;1.10;;;;;;;-1.00;100.00;100365.41;5037264;28;20187;-49
2023/03/06 01:11:24;;;;;;;5.57;1.33;;;;;;;-1.01;100.00;100362.78;5022485;28;20190;-49
2023/03/06 01:13:49;;;;;;;3.28;1.40;;;;;;;-0.98;100.00;100363.66;5022197;28;20195;-50
2023/03/06 01:16:17;;;;;;;5.03;1.10;;;;;;;-1.10;100.00;100358.38;5038662;28;20187;-49
2023/03/06 01:18:44;;;;;;;3.85;0.98;;;;;;;-1.14;100.00;100357.47;5039609;28;20602;-49
2023/03/06 01:21:10;;;;;;;5.32;1.35;;;;;;;-1.15;100.00;100354.88;5009558;28;20183;-49
2023/03/06 01:23:35;;;;;;;5.65;1.20;;;;;;;-1.15;100.00;100345.22;5027885;28;20218;-50
2023/03/06 01:26:01;;;;;;;7.57;1.30;;;;;;;-1.20;100.00;100351.34;5041658;28;20245;-50
2023/03/06 01:28:27;;;;;;;3.55;1.20;;;;;;;-1.19;100.00;100353.09;5023763;28;20226;-52
2023/03/06 01:30:54;;;;;;;1.73;0.88;;;;;;;-1.28;100.00;100354.84;5040534;28;20191;-51
2023/03/06 01:33:20;;;;;;;4.28;1.20;;;;;;;-1.25;100.00;100344.34;5040519;28;20233;-50
2023/03/06 01:35:45;;;;;;;4.70;1.33;;;;;;;-1.37;100.00;100346.94;5037899;28;20610;-49
2023/03/06 01:38:12;;;;;;;4.50;0.90;;;;;;;-1.25;100.00;100349.59;5038713;28;20202;-46
2023/03/06 01:40:39;;;;;;;10.95;1.65;;;;;;;-1.23;100.00;100338.19;5040359;28;20224;-48
2023/03/06 01:43:32;;;;;;;5.32;1.10;;;;;;;-1.36;100.00;100343.41;5020160;28;20682;-51
2023/03/06 01:46:23;;;;;;;4.57;1.17;;;;;;;-1.33;100.00;100338.19;5030097;28;20698;-50
2023/03/06 01:48:53;;;;;;;5.32;1.10;;;;;;;-1.31;100.00;100331.19;5027385;28;20726;-49
2023/03/06 01:51:19;;;;;;;3.50;1.00;;;;;;;-1.42;100.00;100335.56;5023771;28;20225;-49
2023/03/06 01:53:49;;;;;;;3.00;0.90;;;;;;;-1.43;100.00;100336.41;5035067;28;20226;-49
2023/03/06 01:56:15;;;;;;;1.52;0.93;;;;;;;-1.48;100.00;100325.00;5018052;28;20203;-50
2023/03/06 01:58:42;;;;;;;3.17;1.10;;;;;;;-1.38;100.00;100320.66;5020653;28;20184;-49
2023/03/06 02:01:11;;;;;;;7.18;1.20;;;;;;;-1.50;100.00;100321.50;5024985;28;20179;-52
2023/03/06 02:03:38;;;;;;;2.97;1.10;;;;;;;-1.43;100.00;100312.75;5026347;28;20335;-50
2023/03/06 02:06:05;;;;;;;4.32;0.98;;;;;;;-1.43;100.00;100302.25;5040739;28;20229;-50
2023/03/06 02:08:32;;;;;;;5.28;0.98;;;;;;;-1.49;100.00;100307.47;5036843;28;20204;-50
2023/03/06 02:11:01;;;;;;;6.85;0.80;;;;;;;-1.40;100.00;100299.66;5007245;28;20721;-50
2023/03/06 02:13:28;;;;;;;4.75;0.80;;;;;;;-1.47;100.00;100301.34;5037688;28;20199;-52
2023/03/06 02:15:54;;;;;;;5.57;0.80;;;;;;;-1.42;100.00;100306.66;5037411;28;20685;-53
2023/03/06 02:18:20;;;;;;;1.77;0.90;;;;;;;-1.46;100.00;100297.00;5013040;28;20274;-51
2023/03/06 02:20:51;;;;;;;5.50;0.88;;;;;;;-1.44;100.00;100305.75;5026680;28;20262;-49
2023/03/06 02:23:30;;;;;;;1.63;0.80;;;;;;;-1.51;100.00;100294.38;5028556;28;20200;-50
2023/03/06 02:25:56;;;;;;;5.75;0.98;;;;;;;-1.56;100.00;100293.47;5036752;28;20194;-49
2023/03/06 02:28:24;;;;;;;4.78;0.90;;;;;;;-1.59;100.00;100300.47;5005884;28;20204;-49
2023/03/06 02:30:52;;;;;;;5.72;1.13;;;;;;;-1.57;100.00;100298.72;5029158;28;20184;-50
2023/03/06 02:33:22;;;;;;;2.92;1.08;;;;;;;-1.52;100.00;100294.34;5037168;28;20200;-50
2023/03/06 02:35:59;;;;;;;4.82;1.40;;;;;;;-1.54;100.00;100291.72;5033291;28;20175;-49
2023/03/06 02:38:36;;;;;;;2.28;1.02;;;;;;;-1.63;100.00;100298.72;5027638;28;20198;-49
2023/03/06 02:41:06;;;;;;;2.55;1.10;;;;;;;-1.58;100.00;100296.97;5027017;28;20179;-50
2023/03/06 02:43:35;;;;;;;5.43;1.73;;;;;;;-1.46;100.00;100292.63;5034813;28;20261;-50
2023/03/06 02:46:01;;;;;;;1.35;1.23;;;;;;;-1.45;100.00;100296.09;5027407;28;20210;-51
2023/03/06 02:48:26;;;;;;;2.80;1.17;;;;;;;-1.50;100.00;100295.22;5020289;28;20215;-51
2023/03/06 02:50:52;;;;;;;4.82;1.60;;;;;;;-1.58;100.00;100287.31;5038292;28;20262;-51
2023/03/06 02:53:19;;;;;;;5.68;1.45;;;;;;;-1.61;100.00;100284.69;5037157;28;20223;-49
2023/03/06 02:55:45;;;;;;;3.92;1.48;;;;;;;-1.51;100.00;100285.59;5033546;28;20194;-50
2023/03/06 02:58:14;;;;;;;1.75;1.27;;;;;;;-1.54;100.00;100277.72;5022613;28;20168;-51
2023/03/06 03:00:39;;;;;;;3.35;1.15;;;;;;;-1.47;100.00;100282.09;5008207;28;20280;-51
2023/03/06 03:03:07;;;;;;;2.63;1.02;;;;;;;-1.52;100.00;100271.59;5027031;28;20289;-52
2023/03/06 03:05:32;;;;;;;3.85;1.70;;;;;;;-1.53;100.00;100268.94;5038690;28;20243;-51
2023/03/06 03:08:06;;;;;;;3.28;1.60;;;;;;;-1.54;100.00;100273.31;5021193;28;20301;-51
2023/03/06 03:10:32;;;;;;;5.40;1.75;;;;;;;-1.56;100.00;100271.56;5025006;28;20180;-50
2023/03/06 03:12:58;;;;;;;3.17;1.20;;;;;;;-1.46;100.00;100262.84;5024171;28;20248;-51
2023/03/06 03:15:24;;;;;;;4.47;1.88;;;;;;;-1.49;100.00;100266.34;5028884;28;20199;-50
2023/03/06 03:17:50;;;;;;;5.72;1.65;;;;;;;-1.52;100.00;100270.72;5005953;28;20569;-51
2023/03/06 03:20:19;;;;;;;3.75;1.80;;;;;;;-1.47;100.00;100264.56;5041258;28;20228;-50
2023/03/06 03:22:52;;;;;;;5.50;1.90;;;;;;;-1.59;100.00;100259.31;5027790;28;20632;-51
2023/03/06 03:25:19;;;;;;;4.20;2.05;;;;;;;-1.57;100.00;100262.81;5024960;28;20191;-50
2023/03/06 03:27:45;;;;;;;4.72;2.13;;;;;;;-1.55;100.00;100254.91;5018891;28;20525;-51
2023/03/06 03:30:12;;;;;;;4.85;1.70;;;;;;;-1.56;100.00;100258.44;5024535;28;20180;-51
2023/03/06 03:32:38;;;;;;;4.88;2.38;;;;;;;-1.53;100.00;100253.19;5043003;28;20200;-50
2023/03/06 03:35:07;;;;;;;9.32;2.60;;;;;;;-1.58;100.00;100254.94;5007785;28;20260;-51
2023/03/06 03:37:34;;;;;;;7.53;2.47;;;;;;;-1.63;100.00;100246.19;5019189;28;20184;-51
2023/03/06 03:40:01;;;;;;;6.60;2.40;;;;;;;-1.61;100.00;100247.94;5028151;28;20219;-52
2023/03/06 03:42:27;;;;;;;6.03;2.40;;;;;;;-1.56;100.00;100242.69;5032037;28;20249;-50
2023/03/06 03:44:53;;;;;;;4.28;2.10;;;;;;;-1.56;100.00;100235.66;5030784;28;20187;-50
2023/03/06 03:47:20;;;;;;;3.45;2.10;;;;;;;-1.53;100.00;100234.78;5024335;28;20295;-52
2023/03/06 03:49:46;;;;;;;6.20;2.70;;;;;;;-1.56;100.00;100238.28;5028467;28;20575;-51
2023/03/06 03:52:11;;;;;;;4.93;2.50;;;;;;;-1.47;100.00;100226.91;5027929;28;20290;-50
2023/03/06 03:54:39;;;;;;;6.57;3.17;;;;;;;-1.57;100.00;100225.19;5038511;28;20259;-52
2023/03/06 03:57:05;;;;;;;4.28;2.90;;;;;;;-1.60;100.00;100231.28;5027735;28;20646;-51
2023/03/06 03:59:33;;;;;;;8.65;3.78;;;;;;;-1.58;100.00;100223.41;5041551;28;20191;-50
2023/03/06 04:02:07;;;;;;;6.88;3.65;;;;;;;-1.58;100.00;100223.41;5036875;28;20293;-51
2023/03/06 04:04:39;;;;;;;8.27;4.00;;;;;;;-1.60;100.00;100230.41;5040660;28;20191;-51
2023/03/06 04:07:05;;;;;;;6.35;4.07;;;;;;;-1.62;100.00;100222.53;5021638;28;20203;-52
2023/03/06 04:09:31;;;;;;;8.45;4.47;;;;;;;-1.58;100.00;100223.41;5024947;28;20865;-50
2023/03/06 04:11:56;;;;;;;7.00;4.13;;;;;;;-1.67;100.00;100217.25;5040319;28;20206;-52
2023/03/06 04:14:22;;;;;;;5.15;3.88;;;;;;;-1.74;100.00;100212.00;5039387;28;20587;-52
2023/03/06 04:16:47;;;;;;;7.57;4.25;;;;;;;-1.71;100.00;100217.25;5023332;28;20677;-52
2023/03/06 04:19:13;;;;;;;10.95;3.80;;;;;;;-1.74;100.00;100218.13;5025341;28;20517;-50
2023/03/06 04:21:39;;;;;;;8.60;4.50;;;;;;;-1.70;100.00;100221.66;5039461;28;20583;-51
2023/03/06 04:24:07;;;;;;;8.77;3.58;;;;;;;-1.85;100.00;100221.63;5024012;28;20188;-51
2023/03/06 04:26:32;;;;;;;9.20;4.03;;;;;;;-1.78;100.00;100216.38;5024085;28;20717;-51
2023/03/06 04:28:58;;;;;;;6.80;4.05;;;;;;;-1.81;100.00;100205.88;5040588;28;20183;-52
2023/03/06 04:31:24;;;;;;;5.40;4.32;;;;;;;-1.83;100.00;100206.75;5023816;28;20546;-51
2023/03/06 04:33:50;;;;;;;10.02;4.50;;;;;;;-1.90;100.00;100211.97;5007656;28;20180;-50
2023/03/06 04:36:27;;;;;;;6.30;4.28;;;;;;;-1.88;100.00;100198.84;5039796;28;20175;-51
2023/03/06 04:38:56;;;;;;;11.43;5.28;;;;;;;-1.89;100.00;100197.09;5022335;28;20576;-52
2023/03/06 04:41:22;;;;;;;10.25;4.60;;;;;;;-2.01;100.00;100197.06;5009405;28;20191;-51
2023/03/06 04:43:48;;;;;;;8.93;5.07;;;;;;;-2.02;100.00;100188.31;5041280;28;20226;-51
2023/03/06 04:46:13;;;;;;;9.32;4.70;;;;;;;-1.98;100.00;100195.31;5041593;28;20183;-48
2023/03/06 04:48:39;;;;;;;8.38;4.78;;;;;;;-2.01;100.00;100190.09;5039959;28;20246;-45
2023/03/06 04:51:05;;;;;;;9.30;5.10;;;;;;;-2.00;100.00;100199.69;5027866;28;20179;-48
2023/03/06 04:53:31;;;;;;;9.35;4.95;;;;;;;-1.96;100.00;100193.59;5047464;28;20199;-47
2023/03/06 04:55:57;;;;;;;5.18;4.22;;;;;;;-2.02;100.00;100184.81;5039994;28;20691;-48
2023/03/06 04:58:24;;;;;;;11.07;4.55;;;;;;;-2.13;100.00;100188.28;5013851;28;20184;-46
2023/03/06 05:00:49;;;;;;;8.38;4.40;;;;;;;-2.04;100.00;100189.19;5045521;28;20654;-49
2023/03/06 05:03:15;;;;;;;7.88;5.25;;;;;;;-1.98;100.00;100183.97;5038584;28;20207;-49
2023/03/06 05:05:40;;;;;;;9.13;5.15;;;;;;;-1.91;100.00;100193.59;5040373;28;20171;-49
2023/03/06 05:08:06;;;;;;;8.25;4.82;;;;;;;-1.91;100.00;100183.09;5040545;28;20207;-49
2023/03/06 05:10:32;;;;;;;10.38;5.13;;;;;;;-1.88;100.00;100189.25;5024252;28;20317;-51
2023/03/06 05:12:57;;;;;;;12.52;4.88;;;;;;;-1.86;100.00;100181.34;5043257;28;20206;-51
2023/03/06 05:15:23;;;;;;;10.23;5.25;;;;;;;-1.79;100.00;100180.50;5036299;28;20191;-50
2023/03/06 05:17:48;;;;;;;8.73;5.28;;;;;;;-1.75;100.00;100181.34;5039970;28;20231;-51
2023/03/06 05:20:15;;;;;;;10.00;5.03;;;;;;;-1.78;100.00;100178.75;5040419;28;20175;-50
2023/03/06 05:22:40;;;;;;;11.30;5.38;;;;;;;-1.76;100.00;100167.34;5041936;28;20685;-49
2023/03/06 05:25:07;;;;;;;7.03;5.35;;;;;;;-1.70;100.00;100171.75;5040049;28;20199;-51
2023/03/06 05:27:33;;;;;;;10.25;5.05;;;;;;;-1.78;100.00;100179.59;5039814;28;20292;-50
2023/03/06 05:29:59;;;;;;;8.68;5.18;;;;;;;-1.73;100.00;100174.34;5036902;28;20223;-49
2023/03/06 05:32:24;;;;;;;10.50;5.35;;;;;;;-1.72;100.00;100168.25;5041732;28;20210;-51
2023/03/06 05:34:50;;;;;;;9.45;5.20;;;;;;;-1.76;100.00;100175.25;5024856;28;20182;-51
2023/03/06 05:37:16;;;;;;;9.63;5.40;;;;;;;-1.68;100.00;100178.75;5034982;28;20380;-50
2023/03/06 05:39:41;;;;;;;11.30;5.28;;;;;;;-1.66;100.00;100173.50;5039167;28;20281;-51
2023/03/06 05:42:07;;;;;;;7.07;5.05;;;;;;;-1.61;100.00;100170.88;5035466;28;20228;-51
2023/03/06 05:44:34;;;;;;;13.43;6.35;;;;;;;-1.73;100.00;100164.75;5028009;28;20191;-50
2023/03/06 05:47:00;;;;;;;9.48;5.18;;;;;;;-1.73;100.00;100172.63;5040147;28;20239;-50
2023/03/06 05:49:30;;;;;;;8.73;4.63;;;;;;;-1.82;100.00;100172.59;5030956;28;20243;-50
2023/03/06 05:51:55;;;;;;;8.13;4.75;;;;;;;-1.81;100.00;100178.75;5036607;28;20204;-50
2023/03/06 05:54:21;;;;;;;10.60;4.82;;;;;;;-1.81;100.00;100177.00;5037196;28;20427;-52
2023/03/06 05:56:46;;;;;;;9.05;4.88;;;;;;;-1.88;100.00;100170.84;5036818;28;20270;-50
2023/03/06 05:59:12;;;;;;;11.80;5.03;;;;;;;-1.91;100.00;100159.47;5038539;28;20233;-52
2023/03/06 06:01:37;;;;;;;7.53;4.43;;;;;;;-1.93;100.00;100164.69;5037777;28;20168;-51
2023/03/06 06:04:03;;;;;;;6.57;4.35;;;;;;;-1.88;100.00;100162.97;5036661;28;20636;-50
2023/03/06 06:06:28;;;;;;;5.82;3.58;;;;;;;-1.88;100.00;100164.69;5039519;28;20194;-50
2023/03/06 06:08:54;;;;;;;8.00;5.10;;;;;;;-1.82;100.00;100171.72;5038980;28;20176;-50
2023/03/06 06:11:19;;;;;;;9.60;4.10;;;;;;;-1.87;100.00;100171.72;5039685;28;20664;-51
2023/03/06 06:13:47;;;;;;;5.80;3.83;;;;;;;-1.77;100.00;100168.25;5034520;28;20210;-52
2023/03/06 06:16:15;;;;;;;7.28;3.97;;;;;;;-1.78;100.00;100170.88;5038474;28;20180;-50
2023/03/06 06:18:41;;;;;;;9.07;4.07;;;;;;;-1.74;100.00;100152.47;5026896;28;20180;-50
2023/03/06 06:21:08;;;;;;;8.68;3.88;;;;;;;-1.77;100.00;100162.09;5041910;28;20591;-51
2023/03/06 06:23:34;;;;;;;10.00;3.85;;;;;;;-1.71;100.00;100164.75;5037042;28;20575;-51
2023/03/06 06:26:01;;;;;;;8.80;4.13;;;;;;;-1.78;100.00;100158.59;5023994;28;20262;-51
2023/03/06 06:28:27;;;;;;;9.25;3.55;;;;;;;-1.69;100.00;100155.97;5025905;28;20211;-51
2023/03/06 06:30:53;;;;;;;7.13;4.30;;;;;;;-1.70;100.00;100166.50;5036081;28;20544;-50
2023/03/06 06:33:18;;;;;;;8.07;4.07;;;;;;;-1.59;100.00;100172.63;5038522;28;20211;-51
2023/03/06 06:35:44;;;;;;;7.72;3.80;;;;;;;-1.62;100.00;100158.63;5021538;28;20263;-50
2023/03/06 06:38:09;;;;;;;11.00;3.72;;;;;;;-1.44;100.00;100163.88;5037820;28;20250;-50
2023/03/06 06:40:35;;;;;;;9.70;3.35;;;;;;;-1.34;100.00;100165.63;5039555;28;20192;-50
2023/03/06 06:43:00;;;;;;;9.75;3.47;;;;;;;-1.26;100.00;100163.00;5040356;28;20677;-51
2023/03/06 06:45:26;;;;;;;7.05;3.40;;;;;;;-1.19;100.00;100156.84;5040172;28;20221;-49
2023/03/06 06:47:51;;;;;;;8.90;3.33;;;;;;;-1.11;100.00;100162.97;5038287;28;20670;-48
2023/03/06 06:50:17;;;;;;;5.68;3.33;;;;;;;-0.91;100.00;100156.81;5036965;28;20184;-48
2023/03/06 06:52:43;;;;;;;8.50;2.88;;;;;;;-0.90;100.00;100154.16;5039152;28;20269;-48
2023/03/06 06:55:10;;;;;;;7.00;3.22;;;;;;;-0.79;100.00;100153.25;5037132;28;20183;-48
2023/03/06 06:57:35;;;;;;;5.18;2.72;;;;;;;-0.71;100.00;100165.50;5024821;28;20286;-48
2023/03/06 07:00:01;;;;;;;7.28;2.72;;;;;;;-0.64;100.00;100155.84;5043467;28;20180;-48
2023/03/06 07:02:27;;;;;;;7.50;2.70;;;;;;;-0.60;100.00;100157.59;5022884;28;20358;-48
2023/03/06 07:04:52;;;;;;;4.95;2.60;;;;;;;-0.64;100.00;100153.22;5044305;28;20227;-47
2023/03/06 07:07:18;;;;;;;7.22;2.10;;;;;;;-0.76;100.00;100148.00;5046125;28;20237;-46
2023/03/06 07:09:43;;;;;;;5.93;1.98;;;;;;;-0.64;100.00;100154.06;5039829;28;20694;-48
2023/03/06 07:12:09;;;;;;;4.65;2.05;;;;;;;-0.58;100.00;100142.66;5031723;28;20204;-47
2023/03/06 07:14:35;;;;;;;6.10;2.03;;;;;;;-0.57;100.00;100139.16;5037289;28;20329;-50
2023/03/06 07:17:00;;;;;;;5.43;2.00;;;;;;;-0.34;100.00;100146.09;5037564;28;20180;-47
2023/03/06 07:19:26;;;;;;;4.68;1.90;;;;;;;0.03;100.00;100154.66;5040390;28;20179;-47
2023/03/06 07:21:51;;;;;;;6.30;1.60;;;;;;;-0.02;100.00;100146.78;5040922;28;20686;-48
2023/03/06 07:24:17;;;;;;;5.18;1.50;;;;;;;-0.07;100.00;100143.28;5042268;28;20254;-49
2023/03/06 07:26:46;;;;;;;3.13;1.20;;;;;;;0.05;100.00;100142.34;5023826;28;20297;-48
2023/03/06 07:29:12;;;;;;;5.65;1.85;;;;;;;0.06;100.00;100143.22;5041614;28;20728;-47
2023/03/06 07:31:38;;;;;;;3.42;1.45;;;;;;;0.07;100.00;100153.75;5040994;28;20193;-47
2023/03/06 07:34:04;;;;;;;2.30;1.50;;;;;;;0.15;100.00;100145.78;5040182;28;20694;-47
2023/03/06 07:36:29;;;;;;;4.28;1.58;;;;;;;0.33;100.00;100150.94;5043354;28;20187;-47
2023/03/06 07:38:55;;;;;;;6.15;1.67;;;;;;;0.64;100.00;100144.56;5040988;28;20192;-47
2023/03/06 07:41:20;;;;;;;5.75;1.40;;;;;;;0.84;100.00;100150.50;5043428;28;20521;-47
2023/03/06 07:43:46;;;;;;;4.40;1.30;;;;;;;1.05;100.00;100146.78;5041322;28;20212;-47
2023/03/06 07:46:14;;;;;;;5.10;1.27;;;;;;;1.20;100.00;100144.00;5041389;28;20179;-48
2023/03/06 07:48:40;;;;;;;5.13;1.80;;;;;;;1.19;100.00;100138.72;5042067;28;20213;-48
2023/03/06 07:51:17;;;;;;;5.88;1.50;;;;;;;1.26;100.00;100148.31;5042274;28;20179;-48
2023/03/06 07:53:43;;;;;;;2.20;1.08;;;;;;;1.45;100.00;100135.78;5032766;28;20207;-50
2023/03/06 07:56:10;;;;;;;5.50;1.30;;;;;;;1.54;100.00;100135.66;5044914;28;20191;-48
2023/03/06 07:58:38;;;;;;;3.05;1.20;;;;;;;1.53;100.00;100133.03;5043875;28;20365;-48
2023/03/06 08:01:05;;;;;;;5.70;4.35;;;;;;;1.26;100.00;100135.13;5033389;28;20180;-48
2023/03/06 08:03:31;;;;;;;16.50;9.15;;;;;;;1.18;100.00;100121.13;5040150;28;20210;-46
2023/03/06 08:06:14;;;;;;;8.57;6.20;;;;;;;1.83;100.00;100134.41;5044451;28;20180;-48
2023/03/06 08:08:42;;;;;;;4.75;3.53;;;;;;;2.06;100.00;100132.31;5042043;28;20211;-48
2023/03/06 08:11:09;;;;;;;4.28;2.20;;;;;;;2.31;99.22;100129.28;5039184;28;20168;-47
2023/03/06 08:13:34;;;;;;;3.40;1.73;;;;;;;1.83;97.85;100124.69;5039885;28;20208;-47
2023/03/06 08:16:01;;;;;;;4.82;1.85;;;;;;;2.22;97.24;100132.94;5040208;28;20664;-48
2023/03/06 08:18:27;;;;;;;4.68;1.50;;;;;;;2.29;96.13;100131.06;5042896;28;20238;-47
2023/03/06 08:21:11;;;;;;;3.28;1.35;;;;;;;2.33;94.77;100124.84;5044196;28;20183;-48
2023/03/06 08:23:37;;;;;;;2.50;0.82;;;;;;;2.17;93.82;100126.00;5030894;28;20575;-48
2023/03/06 08:26:12;;;;;;;4.90;1.02;;;;;;;2.28;93.04;100128.47;5044744;28;20663;-47
2023/03/06 08:28:37;;;;;;;3.22;0.90;;;;;;;2.38;92.26;100123.00;5027600;28;20377;-48
2023/03/06 08:31:31;;;;;;;1.77;0.63;;;;;;;2.77;91.75;100115.28;5041194;28;20442;-46
2023/03/06 08:33:58;;;;;;;3.90;1.05;;;;;;;2.99;90.28;100117.53;5029667;28;20216;-43
2023/03/06 08:36:24;;;;;;;5.53;0.98;;;;;;;2.75;89.25;100101.22;5039061;28;20278;-41
2023/03/06 08:38:51;;;;;;;2.80;0.73;;;;;;;2.55;89.10;100109.50;5028574;28;20171;-42
2023/03/06 08:41:17;;;;;;;3.33;1.33;;;;;;;2.53;88.47;100108.66;5020425;28;20655;-42
2023/03/06 08:43:42;;;;;;;8.65;1.40;;;;;;;2.65;88.03;100107.59;5034042;28;20214;-40
2023/03/06 08:46:09;;;;;;;4.18;0.93;;;;;;;2.98;87.44;100110.53;5044366;28;20244;-41
2023/03/06 08:48:34;;;;;;;4.13;1.00;;;;;;;3.24;87.13;100102.94;5033360;28;20203;-42
2023/03/06 08:51:00;;;;;;;2.30;0.60;;;;;;;3.30;86.65;100094.00;5027990;23;20205;-43
2023/03/06 08:53:26;;;;;;;2.38;0.60;;;;;;;3.57;86.18;100089.91;5042505;28;20346;-41
2023/03/06 08:55:51;;;;;;;6.28;1.00;;;;;;;3.69;85.23;100099.34;5027348;28;20187;-37
2023/03/06 08:58:16;;;;;;;3.22;1.00;;;;;;;3.74;84.55;100086.00;5041363;28;20217;-40
2023/03/06 09:00:42;;;;;;;4.00;1.10;;;;;;;3.75;84.02;100082.47;5050979;28;20213;-41
2023/03/06 09:03:08;;;;;;;3.97;0.70;;;;;;;4.12;83.27;100082.50;5050154;28;20313;-40
2023/03/06 09:05:34;;;;;;;8.52;0.80;;;;;;;3.83;82.16;100083.19;5043661;28;20182;-39
2023/03/06 09:07:59;;;;;;;1.65;0.60;;;;;;;4.12;81.57;100086.00;5036973;28;20290;-38
2023/03/06 09:10:26;;;;;;;3.10;0.85;;;;;;;3.88;81.20;100081.28;5039722;28;20825;-42
2023/03/06 09:12:52;;;;;;;3.17;0.70;;;;;;;3.81;80.69;100077.03;5034535;28;20206;-39
2023/03/06 09:15:20;;;;;;;3.88;0.63;;;;;;;4.02;80.71;100079.16;5033359;28;20218;-41
2023/03/06 09:17:46;;;;;;;2.67;0.45;;;;;;;4.06;80.81;100075.53;5051275;28;20251;-41
2023/03/06 09:20:13;;;;;;;3.20;0.80;;;;;;;4.22;80.72;100070.78;5051444;28;20201;-39
2023/03/06 09:22:41;;;;;;;1.92;0.50;;;;;;;4.45;80.27;100070.19;5045023;28;20207;-40
2023/03/06 09:25:08;;;;;;;2.33;0.70;;;;;;;4.52;79.96;100070.88;5043702;28;20172;-41
2023/03/06 09:27:34;;;;;;;6.13;0.80;;;;;;;3.99;79.18;100066.00;5031439;28;20286;-41
2023/03/06 09:29:59;;;;;;;1.55;0.57;;;;;;;3.88;79.24;100076.84;5031588;28;20251;-41
2023/03/06 09:32:25;;;;;;;2.95;0.88;;;;;;;3.72;79.30;100073.69;5030922;28;20647;-43
2023/03/06 09:34:50;;;;;;;5.03;0.75;;;;;;;3.89;79.60;100075.06;5042144;28;20305;-43
2023/03/06 09:37:17;;;;;;;3.15;0.68;;;;;;;3.98;79.88;100080.19;5039410;28;20179;-41
2023/03/06 09:39:42;;;;;;;2.90;0.60;;;;;;;4.18;79.40;100071.75;5047820;28;20381;-39
2023/03/06 09:42:14;;;;;;;3.70;0.60;;;;;;;4.23;79.01;100069.84;5052694;28;20739;-40
2023/03/06 09:44:43;;;;;;;5.50;1.10;;;;;;;4.21;78.81;100069.00;5043621;28;20267;-41
2023/03/06 09:47:39;;;;;;;3.35;0.77;;;;;;;4.56;78.13;100059.28;5050143;28;20677;-40
2023/03/06 09:50:22;;;;;;;2.17;0.70;;;;;;;4.66;77.52;100049.31;5050323;28;20155;-40
2023/03/06 09:53:09;;;;;;;2.58;0.73;;;;;;;4.85;76.53;100053.19;5041820;28;20238;-40
2023/03/06 09:55:38;;;;;;;2.70;0.60;;;;;;;4.59;75.74;100042.41;5034238;28;20184;-39
2023/03/06 09:58:17;;;;;;;3.45;0.63;;;;;;;4.91;75.70;100045.06;5050169;28;20259;-41
2023/03/06 10:00:55;;;;;;;0.98;0.50;;;;;;;4.94;75.55;100037.06;5049250;28;20186;-40
2023/03/06 10:03:35;;;;;;;4.82;0.93;;;;;;;5.19;75.08;100035.47;5050093;28;20203;-40
2023/03/06 10:06:12;;;;;;;4.72;0.90;;;;;;;4.76;74.62;100029.56;5041180;28;20172;-41
2023/03/06 10:08:51;;;;;;;6.57;0.90;;;;;;;4.98;74.30;100032.50;5028810;28;20206;-39
2023/03/06 10:11:50;;;;;;;4.18;0.63;;;;;;;4.86;73.44;100028.41;5028915;28;20651;-41
2023/03/06 10:14:19;;;;;;;1.33;0.50;;;;;;;4.49;73.10;100017.94;5010051;28;20192;-41
2023/03/06 10:16:44;;;;;;;2.10;0.50;;;;;;;4.49;73.94;100018.78;5031008;28;20730;-41
2023/03/06 10:19:17;;;;;;;4.10;1.40;;;;;;;4.52;73.64;100024.00;5030553;28;20263;-41
2023/03/06 10:22:27;;;;;;;3.80;0.80;;;;;;;4.54;72.79;100016.03;5030446;28;20637;-42
2023/03/06 10:25:17;;;;;;;4.25;1.10;;;;;;;4.77;71.92;100002.16;5015315;28;20237;-40
2023/03/06 10:27:49;;;;;;;1.95;0.52;;;;;;;5.05;70.92;100002.25;5030391;28;20658;-39
2023/03/06 10:30:40;;;;;;;2.72;0.63;;;;;;;5.06;70.32;99989.81;5030272;28;20165;-41
2023/03/06 10:33:41;;;;;;;2.22;0.68;;;;;;;5.19;70.34;100001.81;5009065;28;20583;-42
2023/03/06 10:36:12;;;;;;;0.73;0.52;;;;;;;5.31;69.89;99992.59;5007186;28;20241;-41
2023/03/06 10:38:37;;;;;;;5.15;1.00;;;;;;;5.11;69.95;99998.50;5030579;28;20164;-43
2023/03/06 10:41:12;;;;;;;9.10;1.20;;;;;;;4.59;69.74;99992.00;5030444;28;20183;-46
2023/03/06 10:44:03;;;;;;;4.15;0.82;;;;;;;4.26;69.64;99979.63;5030081;28;20303;-42
2023/03/06 10:46:35;;;;;;;1.13;0.60;;;;;;;4.57;69.77;99988.53;5004692;28;20191;-40
2023/03/06 10:49:04;;;;;;;3.22;0.80;;;;;;;4.52;69.51;99981.56;5030586;28;20634;-42
2023/03/06 10:51:30;;;;;;;3.28;0.75;;;;;;;4.67;68.58;99976.75;5030033;28;20664;-40
2023/03/06 10:54:17;;;;;;;1.15;0.50;;;;;;;4.53;68.24;99978.03;5012640;28;20173;-41
2023/03/06 10:56:44;;;;;;;4.68;0.60;;;;;;;4.49;68.12;99968.41;5029558;28;20188;-41
2023/03/06 10:59:17;;;;;;;2.97;0.80;;;;;;;4.49;68.04;99983.44;5030090;28;20274;-44
2023/03/06 11:01:48;;;;;;;3.78;0.70;;;;;;;4.82;67.96;99979.00;5047007;28;20191;-41
2023/03/06 11:04:14;;;;;;;3.58;0.50;;;;;;;5.18;67.49;99976.16;5049879;28;20163;-41
2023/03/06 11:06:39;;;;;;;4.05;0.82;;;;;;;5.15;66.58;99960.34;5049864;28;20171;-43
2023/03/06 11:09:21;;;;;;;3.33;0.82;;;;;;;5.33;66.18;99953.59;5037251;28;20630;-43
2023/03/06 11:11:48;;;;;;;2.03;0.95;;;;;;;5.66;65.25;99950.78;5029886;28;20553;-43
2023/03/06 11:14:21;;;;;;;3.75;0.85;;;;;;;5.62;64.99;99939.41;5036141;28;20595;-44
2023/03/06 11:16:52;;;;;;;2.00;0.57;;;;;;;5.95;63.32;99921.50;5036082;28;20180;-41
2023/03/06 11:19:26;;;;;;;2.83;0.55;;;;;;;6.10;62.09;99906.81;5038541;28;20242;-41
2023/03/06 11:22:15;;;;;;;3.80;0.60;;;;;;;5.91;61.91;99906.53;5041349;28;20356;-41
2023/03/06 11:24:46;;;;;;;3.80;0.70;;;;;;;6.07;62.21;99912.22;5038876;28;20206;-41
2023/03/06 11:27:21;;;;;;;3.47;0.80;;;;;;;6.30;61.73;99916.75;5041545;28;20207;-42